createdAt,value
2023-04-29T00:02:24.096Z,9.02
2023-04-29T00:04:57.017Z,7.88
2023-04-29T00:07:29.363Z,8.00
2023-04-29T00:10:01.382Z,7.88
2023-04-29T00:12:33.496Z,7.25
2023-04-29T00:15:08.972Z,7.70
2023-04-29T00:17:40.954Z,7.45
2023-04-29T00:20:13.358Z,10.38
2023-04-29T00:22:45.293Z,10.05
2023-04-29T00:25:17.493Z,10.68
2023-04-29T00:27:49.415Z,11.25
2023-04-29T00:30:22.740Z,10.82
2023-04-29T00:32:55.289Z,10.50
2023-04-29T00:35:27.401Z,8.45
2023-04-29T00:37:59.564Z,7.43
2023-04-29T00:40:31.623Z,7.22
2023-04-29T00:43:03.622Z,6.30
2023-04-29T00:45:37.003Z,6.32
2023-04-29T00:48:09.158Z,6.45
2023-04-29T00:50:41.571Z,5.53
2023-04-29T00:53:14.442Z,7.57
2023-04-29T00:55:47.987Z,5.65
2023-04-29T00:58:21.080Z,7.18
2023-04-29T01:00:56.516Z,5.63
2023-04-29T01:03:29.480Z,5.57
2023-04-29T01:06:13.170Z,5.93
2023-04-29T01:09:06.288Z,6.20
2023-04-29T01:11:50.391Z,6.28
2023-04-29T01:14:24.268Z,5.50
2023-04-29T01:17:02.157Z,6.78
2023-04-29T01:19:45.596Z,6.22
2023-04-29T01:22:18.910Z,7.20
2023-04-29T01:24:52.380Z,7.43
2023-04-29T01:27:30.705Z,6.65
2023-04-29T01:30:22.505Z,6.05
2023-04-29T01:33:01.467Z,7.13
2023-04-29T01:35:46.974Z,6.22
2023-04-29T01:38:31.050Z,7.07
2023-04-29T01:41:11.076Z,7.07
2023-04-29T01:43:47.129Z,6.18
2023-04-29T01:46:25.004Z,7.82
2023-04-29T01:49:01.156Z,7.75
2023-04-29T01:51:34.259Z,6.32
2023-04-29T01:54:06.813Z,6.40
2023-04-29T01:56:40.966Z,7.57
2023-04-29T01:59:21.489Z,7.35
2023-04-29T02:02:11.834Z,6.97
2023-04-29T02:07:24.049Z,5.55
2023-04-29T02:09:56.218Z,6.45
2023-04-29T02:12:30.142Z,6.95
2023-04-29T02:15:02.271Z,5.70
2023-04-29T02:17:34.770Z,6.05
2023-04-29T02:20:08.331Z,5.85
2023-04-29T02:22:40.417Z,6.32
2023-04-29T02:25:12.524Z,5.15
2023-04-29T02:27:45.863Z,7.13
2023-04-29T02:30:17.938Z,7.88
2023-04-29T02:32:49.980Z,7.32
2023-04-29T02:35:22.092Z,8.13
2023-04-29T02:37:54.127Z,6.82
2023-04-29T02:40:27.102Z,7.25
2023-04-29T02:43:01.622Z,9.48
2023-04-29T02:45:34.030Z,8.18
2023-04-29T02:48:06.545Z,7.28
2023-04-29T02:50:39.003Z,7.20
2023-04-29T02:53:11.294Z,6.78
2023-04-29T02:55:44.086Z,8.13
2023-04-29T02:58:17.485Z,8.32
2023-04-29T03:00:49.745Z,7.63
2023-04-29T03:03:23.317Z,7.75
2023-04-29T03:05:55.655Z,8.10
2023-04-29T03:08:28.231Z,8.15
2023-04-29T03:11:01.080Z,8.05
2023-04-29T03:13:34.488Z,8.50
2023-04-29T03:16:07.419Z,7.80
2023-04-29T03:18:39.515Z,7.97
2023-04-29T03:21:11.481Z,7.00
2023-04-29T03:23:44.908Z,7.97
2023-04-29T03:26:24.505Z,8.23
2023-04-29T03:28:59.106Z,9.05
2023-04-29T03:31:32.106Z,8.52
2023-04-29T03:34:04.270Z,8.93
2023-04-29T03:36:39.703Z,8.23
2023-04-29T03:39:13.171Z,9.55
2023-04-29T03:41:45.193Z,7.72
2023-04-29T03:44:18.683Z,8.45
2023-04-29T03:46:50.768Z,10.15
2023-04-29T03:49:23.846Z,9.70
2023-04-29T03:51:55.876Z,10.18
2023-04-29T03:54:28.741Z,8.02
2023-04-29T03:57:01.706Z,9.55
2023-04-29T03:59:35.313Z,9.10
2023-04-29T04:02:07.420Z,8.35
2023-04-29T04:04:40.865Z,7.38
2023-04-29T04:07:13.855Z,8.85
2023-04-29T04:10:05.296Z,8.30
2023-04-29T04:12:37.776Z,8.07
2023-04-29T04:15:11.807Z,9.18
2023-04-29T04:17:43.860Z,9.15
2023-04-29T04:20:16.226Z,7.32
2023-04-29T04:22:48.451Z,7.18
2023-04-29T04:25:25.513Z,8.35
2023-04-29T04:28:04.281Z,6.70
2023-04-29T04:31:05.659Z,7.00
2023-04-29T04:33:39.443Z,5.70
2023-04-29T04:36:12.025Z,6.22
2023-04-29T04:38:45.670Z,6.32
2023-04-29T04:41:18.108Z,5.82
2023-04-29T04:43:52.317Z,5.28
2023-04-29T04:46:49.016Z,5.80
2023-04-29T04:49:32.263Z,5.97
2023-04-29T04:52:05.079Z,5.55
2023-04-29T04:54:38.474Z,5.60
2023-04-29T04:57:18.349Z,5.43
2023-04-29T04:59:52.335Z,6.30
2023-04-29T05:02:26.037Z,5.25
2023-04-29T05:04:58.497Z,5.60
2023-04-29T05:07:36.019Z,4.35
2023-04-29T05:10:11.424Z,5.15
2023-04-29T05:12:51.131Z,4.93
2023-04-29T05:15:25.813Z,4.75
2023-04-29T05:18:01.293Z,4.70
2023-04-29T05:20:33.351Z,4.50
2023-04-29T05:23:07.229Z,4.07
2023-04-29T05:25:43.864Z,5.35
2023-04-29T05:28:15.934Z,4.38
2023-04-29T05:30:51.423Z,5.45
2023-04-29T05:33:25.027Z,4.60
2023-04-29T05:35:56.962Z,4.05
2023-04-29T05:38:29.291Z,4.10
2023-04-29T05:41:14.320Z,3.88
2023-04-29T05:44:10.431Z,3.83
2023-04-29T05:46:42.497Z,3.97
2023-04-29T05:49:16.296Z,3.40
2023-04-29T05:51:48.242Z,3.63
2023-04-29T05:54:20.419Z,3.35
2023-04-29T05:56:52.493Z,3.20
2023-04-29T05:59:24.529Z,3.35
2023-04-29T06:01:59.121Z,4.10
2023-04-29T06:04:32.730Z,2.75
2023-04-29T06:07:37.410Z,2.78
2023-04-29T06:10:17.360Z,2.80
2023-04-29T06:12:51.912Z,3.35
2023-04-29T06:15:24.039Z,2.33
2023-04-29T06:17:56.069Z,2.90
2023-04-29T06:20:29.635Z,2.65
2023-04-29T06:23:01.655Z,2.72
2023-04-29T06:25:34.202Z,2.40
2023-04-29T06:28:09.659Z,2.40
2023-04-29T06:30:42.574Z,2.60
2023-04-29T06:33:15.262Z,2.53
2023-04-29T06:35:48.943Z,2.50
2023-04-29T06:38:46.983Z,2.50
2023-04-29T06:41:52.173Z,2.53
2023-04-29T06:44:42.763Z,2.33
2023-04-29T06:47:31.117Z,3.15
2023-04-29T06:50:11.491Z,2.08
2023-04-29T06:52:44.829Z,1.95
2023-04-29T06:55:17.102Z,2.05
2023-04-29T06:57:49.184Z,2.03
2023-04-29T07:00:22.857Z,3.05
2023-04-29T07:02:55.501Z,1.83
2023-04-29T07:05:27.583Z,2.65
2023-04-29T07:08:00.948Z,2.58
2023-04-29T07:10:33.004Z,2.30
2023-04-29T07:13:05.644Z,2.17
2023-04-29T07:15:37.913Z,3.70
2023-04-29T07:18:10.303Z,2.50
2023-04-29T07:20:43.576Z,2.20
2023-04-29T07:23:17.088Z,1.42
2023-04-29T07:25:49.098Z,1.60
2023-04-29T07:28:21.132Z,1.50
2023-04-29T07:30:53.207Z,1.95
2023-04-29T07:33:25.278Z,2.20
2023-04-29T07:35:57.200Z,1.30
2023-04-29T07:38:30.882Z,1.70
2023-04-29T07:41:04.632Z,1.25
2023-04-29T07:43:37.014Z,1.23
2023-04-29T07:46:09.785Z,1.00
2023-04-29T07:48:42.316Z,1.40
2023-04-29T07:51:15.142Z,1.10
2023-04-29T07:53:49.324Z,1.30
2023-04-29T07:56:21.668Z,1.05
2023-04-29T07:58:54.400Z,1.02
2023-04-29T08:01:27.009Z,1.30
2023-04-29T08:03:59.235Z,1.20
2023-04-29T08:06:32.291Z,1.20
2023-04-29T08:09:05.817Z,1.15
2023-04-29T08:11:37.862Z,1.00
2023-04-29T08:14:09.894Z,1.08
2023-04-29T08:16:41.942Z,0.90
2023-04-29T08:19:14.037Z,0.75
2023-04-29T08:21:46.042Z,0.88
2023-04-29T08:24:20.767Z,1.10
2023-04-29T08:26:53.433Z,1.00
2023-04-29T08:29:25.598Z,0.80
2023-04-29T08:31:57.673Z,0.70
2023-04-29T08:34:31.186Z,1.17
2023-04-29T08:37:03.263Z,1.02
2023-04-29T08:39:36.804Z,0.63
2023-04-29T08:42:09.451Z,1.08
2023-04-29T08:44:42.114Z,0.65
2023-04-29T08:47:16.419Z,0.80
2023-04-29T08:49:48.492Z,0.52
2023-04-29T08:52:20.449Z,0.60
2023-04-29T08:54:54.667Z,0.50
2023-04-29T08:57:28.258Z,0.70
2023-04-29T09:00:01.385Z,0.60
2023-04-29T09:02:35.382Z,0.60
2023-04-29T09:05:09.660Z,0.63
2023-04-29T09:07:42.053Z,0.55
2023-04-29T09:10:17.012Z,0.68
2023-04-29T09:12:50.338Z,0.40
2023-04-29T09:15:22.346Z,0.68
2023-04-29T09:17:54.500Z,0.52
2023-04-29T09:20:28.068Z,0.50
2023-04-29T09:23:03.614Z,0.98
2023-04-29T09:25:37.291Z,0.75
2023-04-29T09:28:16.929Z,0.60
2023-04-29T09:30:50.747Z,0.60
2023-04-29T09:33:22.711Z,0.55
2023-04-29T09:35:54.768Z,0.40
2023-04-29T09:38:26.691Z,0.40
2023-04-29T09:41:00.195Z,0.63
2023-04-29T09:43:34.275Z,0.40
2023-04-29T09:46:13.931Z,0.30
2023-04-29T09:48:45.895Z,0.60
2023-04-29T09:51:18.134Z,0.40
2023-04-29T09:53:50.103Z,0.38
2023-04-29T09:56:23.777Z,0.40
2023-04-29T09:58:57.376Z,1.02
2023-04-29T10:01:29.489Z,1.77
2023-04-29T10:04:03.189Z,0.90
2023-04-29T10:06:35.276Z,2.28
2023-04-29T10:09:08.469Z,0.30
2023-04-29T10:11:42.176Z,0.82
2023-04-29T10:14:16.933Z,0.50
2023-04-29T10:16:51.210Z,10.50
2023-04-29T10:19:27.783Z,3.40
2023-04-29T10:22:05.430Z,1.80
2023-04-29T10:24:37.945Z,0.60
2023-04-29T10:27:13.282Z,0.47
2023-04-29T10:29:46.098Z,0.60
2023-04-29T10:32:18.729Z,0.82
2023-04-29T10:34:54.039Z,0.70
2023-04-29T10:37:26.702Z,0.70
2023-04-29T10:40:08.344Z,0.60
2023-04-29T10:42:46.814Z,0.40
2023-04-29T10:45:23.976Z,0.47
2023-04-29T10:48:14.084Z,0.63
2023-04-29T10:51:04.468Z,0.68
2023-04-29T10:56:11.014Z,0.50
2023-04-29T10:58:46.090Z,0.55
2023-04-29T11:01:18.167Z,0.65
2023-04-29T11:03:58.344Z,0.50
2023-04-29T11:09:14.616Z,0.80
2023-04-29T11:12:00.860Z,0.52
2023-04-29T11:14:38.977Z,0.70
2023-04-29T11:17:13.472Z,0.95
2023-04-29T11:19:47.158Z,1.83
2023-04-29T11:22:27.009Z,1.58
2023-04-29T11:25:01.437Z,0.80
2023-04-29T11:27:34.783Z,1.17
2023-04-29T11:30:09.538Z,1.20
2023-04-29T11:32:42.914Z,1.52
2023-04-29T11:35:16.449Z,1.73
2023-04-29T11:37:48.485Z,1.42
2023-04-29T11:40:21.304Z,1.00
2023-04-29T11:42:53.246Z,1.13
2023-04-29T11:45:27.292Z,1.27
2023-04-29T11:47:59.442Z,1.88
2023-04-29T11:50:32.902Z,1.70
2023-04-29T11:53:04.958Z,1.48
2023-04-29T11:55:36.938Z,1.77
2023-04-29T11:58:09.043Z,1.77
2023-04-29T12:00:44.220Z,1.90
2023-04-29T12:03:17.638Z,2.22
2023-04-29T12:05:52.530Z,2.55
2023-04-29T12:08:25.683Z,2.08
2023-04-29T12:10:59.283Z,2.08
2023-04-29T12:13:31.629Z,1.90
2023-04-29T12:16:06.179Z,1.85
2023-04-29T12:18:39.032Z,1.80
2023-04-29T12:21:11.050Z,2.13
2023-04-29T12:23:43.189Z,2.50
2023-04-29T12:26:15.490Z,2.20
2023-04-29T12:28:55.020Z,2.22
2023-04-29T12:31:35.044Z,2.20
2023-04-29T12:34:09.863Z,2.55
2023-04-29T12:36:42.692Z,2.33
2023-04-29T12:39:14.686Z,2.25
2023-04-29T12:41:46.878Z,2.67
2023-04-29T12:44:18.972Z,2.60
2023-04-29T12:46:58.425Z,2.35
2023-04-29T12:49:30.856Z,2.47
2023-04-29T12:52:03.254Z,2.13
2023-04-29T12:54:36.707Z,2.00
2023-04-29T12:57:10.190Z,1.88
2023-04-29T12:59:42.386Z,2.10
2023-04-29T13:02:16.449Z,2.10
2023-04-29T13:04:48.952Z,2.15
2023-04-29T13:07:21.099Z,2.47
2023-04-29T13:09:53.136Z,2.25
2023-04-29T13:12:25.140Z,2.25
2023-04-29T13:14:58.153Z,2.25
2023-04-29T13:17:32.516Z,2.40
2023-04-29T13:20:05.066Z,2.33
2023-04-29T13:22:37.535Z,2.08
2023-04-29T13:25:10.464Z,1.88
2023-04-29T13:27:42.538Z,2.17
2023-04-29T13:30:14.989Z,1.85
2023-04-29T13:32:55.189Z,2.13
2023-04-29T13:35:28.676Z,1.88
2023-04-29T13:38:01.559Z,2.58
2023-04-29T13:40:38.256Z,2.60
2023-04-29T13:43:14.474Z,2.35
2023-04-29T13:45:48.978Z,2.50
2023-04-29T13:48:55.328Z,2.45
2023-04-29T13:51:56.205Z,2.30
2023-04-29T13:57:37.330Z,3.00
2023-04-29T13:59:44.845Z,4.70
2023-04-29T14:04:57.211Z,4.20
2023-04-29T14:07:29.418Z,3.25
2023-04-29T14:10:01.441Z,2.95
2023-04-29T14:12:33.412Z,3.00
2023-04-29T14:15:07.008Z,2.95
2023-04-29T14:17:38.993Z,2.53
2023-04-29T14:20:13.572Z,6.40
2023-04-29T14:22:45.530Z,3.88
2023-04-29T14:25:17.556Z,3.08
2023-04-29T14:27:49.750Z,3.20
2023-04-29T14:30:21.789Z,2.78
2023-04-29T14:32:53.814Z,2.50
2023-04-29T14:35:27.296Z,2.50
2023-04-29T14:38:00.061Z,2.60
2023-04-29T14:40:32.043Z,2.50
2023-04-29T14:43:04.185Z,2.40
2023-04-29T14:45:37.683Z,2.55
2023-04-29T14:48:09.852Z,3.28
2023-04-29T14:50:43.314Z,3.00
2023-04-29T14:53:15.598Z,2.17
2023-04-29T14:55:49.288Z,2.55
2023-04-29T14:58:21.404Z,3.20
2023-04-29T15:00:53.537Z,2.33
2023-04-29T15:03:25.911Z,3.17
2023-04-29T15:06:01.510Z,2.78
2023-04-29T15:08:33.682Z,2.60
2023-04-29T15:11:05.773Z,2.88
2023-04-29T15:13:37.808Z,3.05
2023-04-29T15:16:09.924Z,2.10
2023-04-29T15:18:45.023Z,2.40
2023-04-29T15:21:19.155Z,2.97
2023-04-29T15:23:51.263Z,4.20
2023-04-29T15:26:23.391Z,4.20
2023-04-29T15:28:55.415Z,3.38
2023-04-29T15:31:28.629Z,3.10
2023-04-29T15:34:02.322Z,3.22
2023-04-29T15:36:36.002Z,2.63
2023-04-29T15:39:11.014Z,3.33
2023-04-29T15:41:42.973Z,3.03
2023-04-29T15:44:15.070Z,3.25
2023-04-29T15:46:47.075Z,3.00
2023-04-29T15:49:19.093Z,3.35
2023-04-29T15:51:52.515Z,2.88
2023-04-29T15:54:24.719Z,3.45
2023-04-29T15:56:57.733Z,4.07
2023-04-29T15:59:29.901Z,3.85
2023-04-29T16:02:03.405Z,4.53
2023-04-29T16:04:35.430Z,3.88
2023-04-29T16:07:08.870Z,3.30
2023-04-29T16:09:40.904Z,4.00
2023-04-29T16:12:14.098Z,4.10
2023-04-29T16:14:46.399Z,4.63
2023-04-29T16:17:18.529Z,5.32
2023-04-29T16:19:50.512Z,5.13
2023-04-29T16:22:23.921Z,5.72
2023-04-29T16:24:55.893Z,5.75
2023-04-29T16:27:29.969Z,5.50
2023-04-29T16:30:02.153Z,6.45
2023-04-29T16:32:34.622Z,4.82
2023-04-29T16:35:07.236Z,5.50
2023-04-29T16:37:40.662Z,6.80
2023-04-29T16:40:13.431Z,5.88
2023-04-29T16:42:46.377Z,5.38
2023-04-29T16:45:18.401Z,5.78
2023-04-29T16:47:50.600Z,5.85
2023-04-29T16:50:22.627Z,5.55
2023-04-29T16:52:56.028Z,7.13
2023-04-29T16:55:27.995Z,6.30
2023-04-29T16:57:59.968Z,7.65
2023-04-29T17:00:32.000Z,8.02
2023-04-29T17:03:05.253Z,6.03
2023-04-29T17:05:37.823Z,5.70
2023-04-29T17:08:11.474Z,5.68
2023-04-29T17:10:43.963Z,4.95
2023-04-29T17:13:16.400Z,5.30
2023-04-29T17:15:48.435Z,5.30
2023-04-29T17:18:20.475Z,5.07
2023-04-29T17:20:52.461Z,4.75
2023-04-29T17:23:25.819Z,5.07
2023-04-29T17:25:57.771Z,5.82
2023-04-29T17:28:29.955Z,6.65
2023-04-29T17:31:02.524Z,5.70
2023-04-29T17:33:35.420Z,6.65
2023-04-29T17:36:07.544Z,7.15
2023-04-29T17:38:42.250Z,5.55
2023-04-29T17:41:14.363Z,5.40
2023-04-29T17:43:47.214Z,5.45
2023-04-29T17:46:19.348Z,5.35
2023-04-29T17:48:51.451Z,5.07
2023-04-29T17:51:23.448Z,4.50
2023-04-29T17:53:56.837Z,4.65
2023-04-29T17:56:28.852Z,4.53
2023-04-29T17:59:01.271Z,4.18
2023-04-29T18:01:33.370Z,4.43
2023-04-29T18:04:06.179Z,4.88
2023-04-29T18:06:38.444Z,4.60
2023-04-29T18:09:11.907Z,4.40
2023-04-29T18:11:43.920Z,4.50
2023-04-29T18:14:15.996Z,4.05
2023-04-29T18:16:47.988Z,4.65
2023-04-29T18:19:20.045Z,4.80
2023-04-29T18:21:51.956Z,5.60
2023-04-29T18:24:25.837Z,6.53
2023-04-29T18:26:58.018Z,5.32
2023-04-29T18:29:30.088Z,4.30
2023-04-29T18:32:02.186Z,6.60
2023-04-29T18:34:34.294Z,5.50
2023-04-29T18:37:06.734Z,4.80
2023-04-29T18:39:40.104Z,5.88
2023-04-29T18:42:12.071Z,5.43
2023-04-29T18:44:45.788Z,5.65
2023-04-29T18:47:18.382Z,5.30
2023-04-29T18:49:50.352Z,5.40
2023-04-29T18:52:22.371Z,4.78
2023-04-29T18:54:55.772Z,4.40
2023-04-29T18:57:28.054Z,4.90
2023-04-29T19:00:00.059Z,4.38
2023-04-29T19:02:32.582Z,5.10
2023-04-29T19:05:09.281Z,4.55
2023-04-29T19:07:41.714Z,4.43
2023-04-29T19:10:15.373Z,3.95
2023-04-29T19:12:47.434Z,4.15
2023-04-29T19:15:19.541Z,3.55
2023-04-29T19:17:51.543Z,3.72
2023-04-29T19:20:23.691Z,3.97
2023-04-29T19:22:56.777Z,4.50
2023-04-29T19:25:31.584Z,4.28
2023-04-29T19:28:03.593Z,4.18
2023-04-29T19:30:35.773Z,4.03
2023-04-29T19:33:08.546Z,4.38
2023-04-29T19:35:40.608Z,3.72
2023-04-29T19:38:12.539Z,4.22
2023-04-29T19:40:46.076Z,4.00
2023-04-29T19:43:18.026Z,4.03
2023-04-29T19:45:50.061Z,4.22
2023-04-29T19:48:22.091Z,3.42
2023-04-29T19:50:54.132Z,4.10
2023-04-29T19:53:26.536Z,3.88
2023-04-29T19:55:59.911Z,4.80
2023-04-29T19:58:31.909Z,4.03
2023-04-29T20:01:04.039Z,4.28
2023-04-29T20:03:39.281Z,3.63
2023-04-29T20:06:11.772Z,4.22
2023-04-29T20:08:43.809Z,3.70
2023-04-29T20:11:17.191Z,3.83
2023-04-29T20:13:49.606Z,3.65
2023-04-29T20:16:23.448Z,4.53
2023-04-29T20:18:55.458Z,3.90
2023-04-29T20:21:28.151Z,4.05
2023-04-29T20:24:00.113Z,4.05
2023-04-29T20:26:33.505Z,3.47
2023-04-29T20:29:05.676Z,3.70
2023-04-29T20:31:37.766Z,3.97
2023-04-29T20:34:09.780Z,4.70
2023-04-29T20:36:41.786Z,3.40
2023-04-29T20:39:13.767Z,4.57
2023-04-29T20:41:47.164Z,4.90
2023-04-29T20:44:19.320Z,4.05
2023-04-29T20:46:53.129Z,4.38
2023-04-29T20:49:25.298Z,4.32
2023-04-29T20:51:59.735Z,3.95
2023-04-29T20:54:31.876Z,4.03
2023-04-29T20:57:05.840Z,3.75
2023-04-29T20:59:37.911Z,4.07
2023-04-29T21:02:09.992Z,4.20
2023-04-29T21:04:41.913Z,4.28
2023-04-29T21:07:14.241Z,3.90
2023-04-29T21:09:48.696Z,4.45
2023-04-29T21:12:22.407Z,4.40
2023-04-29T21:14:54.347Z,3.97
2023-04-29T21:17:26.538Z,4.28
2023-04-29T21:19:58.473Z,3.85
2023-04-29T21:22:30.516Z,3.63
2023-04-29T21:25:02.654Z,3.58
2023-04-29T21:27:36.532Z,4.07
2023-04-29T21:30:09.256Z,3.67
2023-04-29T21:32:41.340Z,4.93
2023-04-29T21:35:13.474Z,4.00
2023-04-29T21:37:46.023Z,3.92
2023-04-29T21:40:18.960Z,4.05
2023-04-29T21:42:55.233Z,3.67
2023-04-29T21:45:27.220Z,4.60
2023-04-29T21:48:05.659Z,4.18
2023-04-29T21:50:38.171Z,4.25
2023-04-29T21:53:10.391Z,4.25
2023-04-29T21:55:42.603Z,4.25
2023-04-29T21:58:16.345Z,4.00
2023-04-29T22:00:58.475Z,4.40
2023-04-29T22:03:30.714Z,3.75
2023-04-29T22:06:02.730Z,4.50
2023-04-29T22:08:34.697Z,4.57
2023-04-29T22:11:06.679Z,4.25
2023-04-29T22:13:40.108Z,4.38
2023-04-29T22:16:12.367Z,4.72
2023-04-29T22:18:44.556Z,4.03
2023-04-29T22:21:16.586Z,4.90
2023-04-29T22:23:49.238Z,3.92
2023-04-29T22:26:21.295Z,4.72
2023-04-29T22:28:55.074Z,4.47
2023-04-29T22:31:27.615Z,4.07
2023-04-29T22:33:59.628Z,5.10
2023-04-29T22:36:32.800Z,4.50
2023-04-29T22:39:04.788Z,4.78
2023-04-29T22:41:36.789Z,5.13
2023-04-29T22:44:10.195Z,5.20
2023-04-29T22:46:42.189Z,4.57
2023-04-29T22:49:14.194Z,4.97
2023-04-29T22:51:46.115Z,4.15
2023-04-29T22:54:18.099Z,5.00
2023-04-29T22:56:50.071Z,4.78
2023-04-29T22:59:23.435Z,4.90
2023-04-29T23:01:55.515Z,4.13
2023-04-29T23:04:27.742Z,5.00
2023-04-29T23:06:59.727Z,4.82
2023-04-29T23:09:31.742Z,4.82
2023-04-29T23:12:03.999Z,4.95
2023-04-29T23:14:37.369Z,4.80
2023-04-29T23:17:09.338Z,5.20
2023-04-29T23:19:41.288Z,5.75
2023-04-29T23:22:13.229Z,5.47
2023-04-29T23:24:45.287Z,4.97
2023-04-29T23:27:17.229Z,4.68
2023-04-29T23:29:50.672Z,5.18
2023-04-29T23:32:24.428Z,5.57
2023-04-29T23:34:56.498Z,5.20
2023-04-29T23:37:28.488Z,5.57
2023-04-29T23:40:00.408Z,5.15
2023-04-29T23:42:32.460Z,5.38
2023-04-29T23:45:07.104Z,5.22
2023-04-29T23:47:39.187Z,5.90
2023-04-29T23:50:11.249Z,6.72
2023-04-29T23:52:43.174Z,6.25
2023-04-29T23:55:15.173Z,5.60
2023-04-29T23:57:47.280Z,5.97
